sensor_id;sensor_type;location;lat;lon;timestamp;P1;durP1;ratioP1;P2;durP2;ratioP2
25341;SDS011;13298;48.792;9.154;2023-05-10T00:02:08;2.58;;;0.90;;
25341;SDS011;13298;48.792;9.154;2023-05-10T00:04:34;2.15;;;0.90;;
25341;SDS011;13298;48.792;9.154;2023-05-10T00:07:00;2.45;;;0.70;;
25341;SDS011;13298;48.792;9.154;2023-05-10T00:09:26;1.50;;;0.73;;
25341;SDS011;13298;48.792;9.154;2023-05-10T00:11:52;2.70;;;0.80;;
25341;SDS011;13298;48.792;9.154;2023-05-10T00:14:17;0.75;;;0.65;;
25341;SDS011;13298;48.792;9.154;2023-05-10T00:16:43;1.80;;;0.60;;
25341;SDS011;13298;48.792;9.154;2023-05-10T00:19:09;1.25;;;0.52;;
25341;SDS011;13298;48.792;9.154;2023-05-10T00:21:35;0.93;;;0.57;;
25341;SDS011;13298;48.792;9.154;2023-05-10T00:24:01;5.43;;;0.70;;
25341;SDS011;13298;48.792;9.154;2023-05-10T00:26:26;0.50;;;0.38;;
25341;SDS011;13298;48.792;9.154;2023-05-10T00:28:52;0.82;;;0.47;;
25341;SDS011;13298;48.792;9.154;2023-05-10T00:31:18;9.75;;;0.73;;
25341;SDS011;13298;48.792;9.154;2023-05-10T00:33:43;4.25;;;0.50;;
25341;SDS011;13298;48.792;9.154;2023-05-10T00:36:09;0.60;;;0.47;;
25341;SDS011;13298;48.792;9.154;2023-05-10T00:38:35;3.80;;;0.50;;
25341;SDS011;13298;48.792;9.154;2023-05-10T00:41:00;0.65;;;0.30;;
25341;SDS011;13298;48.792;9.154;2023-05-10T00:43:26;1.13;;;0.20;;
25341;SDS011;13298;48.792;9.154;2023-05-10T00:45:52;3.47;;;0.47;;
25341;SDS011;13298;48.792;9.154;2023-05-10T00:48:18;0.32;;;0.20;;
25341;SDS011;13298;48.792;9.154;2023-05-10T00:50:44;5.22;;;0.45;;
25341;SDS011;13298;48.792;9.154;2023-05-10T00:53:10;2.75;;;0.28;;
25341;SDS011;13298;48.792;9.154;2023-05-10T00:55:36;0.30;;;0.20;;
25341;SDS011;13298;48.792;9.154;2023-05-10T00:58:02;3.33;;;0.30;;
25341;SDS011;13298;48.792;9.154;2023-05-10T01:00:28;0.65;;;0.30;;
25341;SDS011;13298;48.792;9.154;2023-05-10T01:02:54;0.20;;;0.20;;
25341;SDS011;13298;48.792;9.154;2023-05-10T01:05:20;3.03;;;0.30;;
25341;SDS011;13298;48.792;9.154;2023-05-10T01:07:46;5.22;;;0.47;;
25341;SDS011;13298;48.792;9.154;2023-05-10T01:10:11;11.75;;;1.02;;
25341;SDS011;13298;48.792;9.154;2023-05-10T01:12:38;7.60;;;0.60;;
25341;SDS011;13298;48.792;9.154;2023-05-10T01:15:08;2.85;;;0.50;;
25341;SDS011;13298;48.792;9.154;2023-05-10T01:17:36;1.35;;;0.32;;
25341;SDS011;13298;48.792;9.154;2023-05-10T01:20:05;0.80;;;0.40;;
25341;SDS011;13298;48.792;9.154;2023-05-10T01:28:44;0.13;;;0.13;;
25341;SDS011;13298;48.792;9.154;2023-05-10T01:34:52;3.10;;;0.50;;
25341;SDS011;13298;48.792;9.154;2023-05-10T01:40:46;0.90;;;0.68;;
25341;SDS011;13298;48.792;9.154;2023-05-10T01:46:52;0.65;;;0.30;;
25341;SDS011;13298;48.792;9.154;2023-05-10T01:49:26;0.82;;;0.68;;
25341;SDS011;13298;48.792;9.154;2023-05-10T01:52:00;0.60;;;0.50;;
25341;SDS011;13298;48.792;9.154;2023-05-10T01:54:35;0.30;;;0.30;;
25341;SDS011;13298;48.792;9.154;2023-05-10T01:57:05;0.22;;;0.22;;
25341;SDS011;13298;48.792;9.154;2023-05-10T01:59:34;0.32;;;0.32;;
25341;SDS011;13298;48.792;9.154;2023-05-10T02:02:01;1.05;;;0.43;;
25341;SDS011;13298;48.792;9.154;2023-05-10T02:04:29;0.30;;;0.30;;
25341;SDS011;13298;48.792;9.154;2023-05-10T02:06:56;0.52;;;0.40;;
25341;SDS011;13298;48.792;9.154;2023-05-10T02:09:22;1.17;;;0.50;;
25341;SDS011;13298;48.792;9.154;2023-05-10T02:11:50;0.98;;;0.30;;
25341;SDS011;13298;48.792;9.154;2023-05-10T02:14:16;0.95;;;0.40;;
25341;SDS011;13298;48.792;9.154;2023-05-10T02:16:43;0.75;;;0.43;;
25341;SDS011;13298;48.792;9.154;2023-05-10T02:19:11;0.95;;;0.40;;
25341;SDS011;13298;48.792;9.154;2023-05-10T02:21:39;0.50;;;0.47;;
25341;SDS011;13298;48.792;9.154;2023-05-10T02:24:06;0.40;;;0.40;;
25341;SDS011;13298;48.792;9.154;2023-05-10T02:26:33;1.15;;;0.30;;
25341;SDS011;13298;48.792;9.154;2023-05-10T02:29:01;1.25;;;0.40;;
25341;SDS011;13298;48.792;9.154;2023-05-10T02:31:29;0.20;;;0.20;;
25341;SDS011;13298;48.792;9.154;2023-05-10T02:33:57;0.40;;;0.30;;
25341;SDS011;13298;48.792;9.154;2023-05-10T02:36:24;0.30;;;0.30;;
25341;SDS011;13298;48.792;9.154;2023-05-10T02:38:52;0.20;;;0.20;;
25341;SDS011;13298;48.792;9.154;2023-05-10T02:41:19;1.17;;;0.30;;
25341;SDS011;13298;48.792;9.154;2023-05-10T02:43:49;0.95;;;0.30;;
25341;SDS011;13298;48.792;9.154;2023-05-10T02:46:17;0.30;;;0.30;;
25341;SDS011;13298;48.792;9.154;2023-05-10T02:48:43;0.30;;;0.30;;
25341;SDS011;13298;48.792;9.154;2023-05-10T02:51:09;1.67;;;0.38;;
25341;SDS011;13298;48.792;9.154;2023-05-10T02:53:40;0.20;;;0.20;;
25341;SDS011;13298;48.792;9.154;2023-05-10T02:56:11;1.23;;;0.50;;
25341;SDS011;13298;48.792;9.154;2023-05-10T02:58:42;1.80;;;0.55;;
25341;SDS011;13298;48.792;9.154;2023-05-10T03:01:07;1.55;;;0.50;;
25341;SDS011;13298;48.792;9.154;2023-05-10T03:03:33;0.38;;;0.38;;
25341;SDS011;13298;48.792;9.154;2023-05-10T03:05:59;0.40;;;0.40;;
25341;SDS011;13298;48.792;9.154;2023-05-10T03:08:25;2.72;;;0.40;;
25341;SDS011;13298;48.792;9.154;2023-05-10T03:16:50;2.47;;;0.73;;
25341;SDS011;13298;48.792;9.154;2023-05-10T03:19:37;0.98;;;0.80;;
25341;SDS011;13298;48.792;9.154;2023-05-10T03:22:16;1.00;;;0.80;;
25341;SDS011;13298;48.792;9.154;2023-05-10T03:25:00;0.75;;;0.60;;
25341;SDS011;13298;48.792;9.154;2023-05-10T03:27:31;0.70;;;0.68;;
25341;SDS011;13298;48.792;9.154;2023-05-10T03:29:57;1.50;;;0.52;;
25341;SDS011;13298;48.792;9.154;2023-05-10T03:32:23;0.63;;;0.63;;
25341;SDS011;13298;48.792;9.154;2023-05-10T03:34:49;1.38;;;1.08;;
25341;SDS011;13298;48.792;9.154;2023-05-10T03:37:15;2.78;;;0.80;;
25341;SDS011;13298;48.792;9.154;2023-05-10T03:39:40;1.23;;;0.70;;
25341;SDS011;13298;48.792;9.154;2023-05-10T03:42:06;0.90;;;0.60;;
25341;SDS011;13298;48.792;9.154;2023-05-10T03:44:32;2.70;;;0.90;;
25341;SDS011;13298;48.792;9.154;2023-05-10T03:47:00;0.82;;;0.82;;
25341;SDS011;13298;48.792;9.154;2023-05-10T03:49:26;1.00;;;0.70;;
25341;SDS011;13298;48.792;9.154;2023-05-10T03:51:51;0.70;;;0.70;;
25341;SDS011;13298;48.792;9.154;2023-05-10T03:54:17;0.80;;;0.70;;
25341;SDS011;13298;48.792;9.154;2023-05-10T03:56:43;2.35;;;0.70;;
25341;SDS011;13298;48.792;9.154;2023-05-10T03:59:08;0.60;;;0.60;;
25341;SDS011;13298;48.792;9.154;2023-05-10T04:01:34;2.47;;;0.50;;
25341;SDS011;13298;48.792;9.154;2023-05-10T04:04:00;0.73;;;0.70;;
25341;SDS011;13298;48.792;9.154;2023-05-10T04:06:26;1.73;;;0.73;;
25341;SDS011;13298;48.792;9.154;2023-05-10T04:08:51;0.60;;;0.60;;
25341;SDS011;13298;48.792;9.154;2023-05-10T04:11:17;1.02;;;0.85;;
25341;SDS011;13298;48.792;9.154;2023-05-10T04:13:43;0.60;;;0.60;;
25341;SDS011;13298;48.792;9.154;2023-05-10T04:16:08;0.65;;;0.65;;
25341;SDS011;13298;48.792;9.154;2023-05-10T04:18:34;0.93;;;0.70;;
25341;SDS011;13298;48.792;9.154;2023-05-10T04:21:00;1.52;;;0.80;;
25341;SDS011;13298;48.792;9.154;2023-05-10T04:23:26;2.35;;;0.80;;
25341;SDS011;13298;48.792;9.154;2023-05-10T04:25:52;1.52;;;0.75;;
25341;SDS011;13298;48.792;9.154;2023-05-10T04:28:24;0.85;;;0.70;;
25341;SDS011;13298;48.792;9.154;2023-05-10T04:30:50;1.70;;;0.70;;
25341;SDS011;13298;48.792;9.154;2023-05-10T04:33:15;1.65;;;0.95;;
25341;SDS011;13298;48.792;9.154;2023-05-10T04:35:41;0.77;;;0.77;;
25341;SDS011;13298;48.792;9.154;2023-05-10T04:38:07;1.00;;;0.80;;
25341;SDS011;13298;48.792;9.154;2023-05-10T04:40:32;1.52;;;0.77;;
25341;SDS011;13298;48.792;9.154;2023-05-10T04:42:59;0.95;;;0.70;;
25341;SDS011;13298;48.792;9.154;2023-05-10T04:45:24;1.05;;;0.98;;
25341;SDS011;13298;48.792;9.154;2023-05-10T04:47:50;1.77;;;0.80;;
25341;SDS011;13298;48.792;9.154;2023-05-10T04:50:16;1.73;;;0.90;;
25341;SDS011;13298;48.792;9.154;2023-05-10T04:52:42;3.22;;;0.90;;
25341;SDS011;13298;48.792;9.154;2023-05-10T04:55:08;1.45;;;1.00;;
25341;SDS011;13298;48.792;9.154;2023-05-10T04:57:34;4.25;;;1.60;;
25341;SDS011;13298;48.792;9.154;2023-05-10T05:00:00;1.10;;;1.00;;
25341;SDS011;13298;48.792;9.154;2023-05-10T05:02:26;1.20;;;1.10;;
25341;SDS011;13298;48.792;9.154;2023-05-10T05:04:52;2.88;;;0.90;;
25341;SDS011;13298;48.792;9.154;2023-05-10T05:07:18;1.98;;;0.95;;
25341;SDS011;13298;48.792;9.154;2023-05-10T05:09:43;1.05;;;0.80;;
25341;SDS011;13298;48.792;9.154;2023-05-10T05:12:09;1.17;;;0.68;;
25341;SDS011;13298;48.792;9.154;2023-05-10T05:14:38;1.08;;;0.98;;
25341;SDS011;13298;48.792;9.154;2023-05-10T05:17:05;1.35;;;1.00;;
25341;SDS011;13298;48.792;9.154;2023-05-10T05:19:31;1.33;;;0.70;;
25341;SDS011;13298;48.792;9.154;2023-05-10T05:21:57;1.38;;;0.63;;
25341;SDS011;13298;48.792;9.154;2023-05-10T05:24:22;1.98;;;1.02;;
25341;SDS011;13298;48.792;9.154;2023-05-10T05:26:48;1.88;;;1.00;;
25341;SDS011;13298;48.792;9.154;2023-05-10T05:29:14;0.82;;;0.70;;
25341;SDS011;13298;48.792;9.154;2023-05-10T05:31:39;0.77;;;0.68;;
25341;SDS011;13298;48.792;9.154;2023-05-10T05:34:05;0.90;;;0.80;;
25341;SDS011;13298;48.792;9.154;2023-05-10T05:36:31;1.67;;;0.88;;
25341;SDS011;13298;48.792;9.154;2023-05-10T05:38:57;2.55;;;0.95;;
25341;SDS011;13298;48.792;9.154;2023-05-10T05:41:22;1.40;;;1.10;;
25341;SDS011;13298;48.792;9.154;2023-05-10T05:43:49;1.52;;;0.80;;
25341;SDS011;13298;48.792;9.154;2023-05-10T05:46:15;0.73;;;0.73;;
25341;SDS011;13298;48.792;9.154;2023-05-10T05:48:40;1.35;;;0.80;;
25341;SDS011;13298;48.792;9.154;2023-05-10T05:51:06;1.98;;;0.98;;
25341;SDS011;13298;48.792;9.154;2023-05-10T05:53:32;1.88;;;0.90;;
25341;SDS011;13298;48.792;9.154;2023-05-10T05:55:58;1.15;;;0.90;;
25341;SDS011;13298;48.792;9.154;2023-05-10T05:58:24;1.33;;;0.85;;
25341;SDS011;13298;48.792;9.154;2023-05-10T06:00:50;2.58;;;0.90;;
25341;SDS011;13298;48.792;9.154;2023-05-10T06:03:17;1.40;;;1.00;;
25341;SDS011;13298;48.792;9.154;2023-05-10T06:05:43;2.42;;;0.93;;
25341;SDS011;13298;48.792;9.154;2023-05-10T06:08:09;1.05;;;0.80;;
25341;SDS011;13298;48.792;9.154;2023-05-10T06:10:35;0.95;;;0.80;;
25341;SDS011;13298;48.792;9.154;2023-05-10T06:13:01;0.80;;;0.80;;
25341;SDS011;13298;48.792;9.154;2023-05-10T06:15:27;3.45;;;0.80;;
25341;SDS011;13298;48.792;9.154;2023-05-10T06:17:52;1.65;;;1.10;;
25341;SDS011;13298;48.792;9.154;2023-05-10T06:20:18;0.70;;;0.70;;
25341;SDS011;13298;48.792;9.154;2023-05-10T06:22:44;3.20;;;1.30;;
25341;SDS011;13298;48.792;9.154;2023-05-10T06:25:10;1.35;;;0.90;;
25341;SDS011;13298;48.792;9.154;2023-05-10T06:27:36;0.82;;;0.80;;
25341;SDS011;13298;48.792;9.154;2023-05-10T06:30:02;1.67;;;0.80;;
25341;SDS011;13298;48.792;9.154;2023-05-10T06:32:28;0.93;;;0.70;;
25341;SDS011;13298;48.792;9.154;2023-05-10T06:34:54;3.00;;;1.20;;
25341;SDS011;13298;48.792;9.154;2023-05-10T06:37:20;1.10;;;0.93;;
25341;SDS011;13298;48.792;9.154;2023-05-10T06:39:45;1.40;;;0.75;;
25341;SDS011;13298;48.792;9.154;2023-05-10T06:42:11;1.27;;;0.77;;
25341;SDS011;13298;48.792;9.154;2023-05-10T06:44:37;3.28;;;1.10;;
25341;SDS011;13298;48.792;9.154;2023-05-10T06:47:02;2.08;;;0.80;;
25341;SDS011;13298;48.792;9.154;2023-05-10T06:49:28;0.93;;;0.70;;
25341;SDS011;13298;48.792;9.154;2023-05-10T06:51:57;3.33;;;1.17;;
25341;SDS011;13298;48.792;9.154;2023-05-10T06:54:23;2.17;;;0.93;;
25341;SDS011;13298;48.792;9.154;2023-05-10T06:56:49;1.25;;;0.90;;
25341;SDS011;13298;48.792;9.154;2023-05-10T06:59:14;3.65;;;0.88;;
25341;SDS011;13298;48.792;9.154;2023-05-10T07:01:41;5.10;;;1.25;;
25341;SDS011;13298;48.792;9.154;2023-05-10T07:04:07;4.18;;;1.20;;
25341;SDS011;13298;48.792;9.154;2023-05-10T07:06:33;1.10;;;0.95;;
25341;SDS011;13298;48.792;9.154;2023-05-10T07:08:59;3.05;;;0.80;;
25341;SDS011;13298;48.792;9.154;2023-05-10T07:11:25;1.92;;;0.93;;
25341;SDS011;13298;48.792;9.154;2023-05-10T07:13:51;1.42;;;1.00;;
25341;SDS011;13298;48.792;9.154;2023-05-10T07:16:17;4.20;;;1.02;;
25341;SDS011;13298;48.792;9.154;2023-05-10T07:18:43;1.05;;;0.88;;
25341;SDS011;13298;48.792;9.154;2023-05-10T07:21:08;2.95;;;1.23;;
25341;SDS011;13298;48.792;9.154;2023-05-10T07:23:34;2.22;;;1.00;;
25341;SDS011;13298;48.792;9.154;2023-05-10T07:26:00;1.73;;;1.00;;
25341;SDS011;13298;48.792;9.154;2023-05-10T07:28:27;1.00;;;0.90;;
25341;SDS011;13298;48.792;9.154;2023-05-10T07:30:52;1.95;;;1.08;;
25341;SDS011;13298;48.792;9.154;2023-05-10T07:33:18;1.42;;;0.82;;
25341;SDS011;13298;48.792;9.154;2023-05-10T07:35:44;3.50;;;1.13;;
25341;SDS011;13298;48.792;9.154;2023-05-10T07:38:10;1.65;;;1.00;;
25341;SDS011;13298;48.792;9.154;2023-05-10T07:40:39;1.65;;;0.88;;
25341;SDS011;13298;48.792;9.154;2023-05-10T07:43:04;0.75;;;0.65;;
25341;SDS011;13298;48.792;9.154;2023-05-10T07:45:30;2.47;;;0.90;;
25341;SDS011;13298;48.792;9.154;2023-05-10T07:47:56;1.40;;;0.75;;
25341;SDS011;13298;48.792;9.154;2023-05-10T07:50:22;1.50;;;0.73;;
25341;SDS011;13298;48.792;9.154;2023-05-10T07:52:47;1.30;;;0.80;;
25341;SDS011;13298;48.792;9.154;2023-05-10T07:55:13;2.55;;;0.70;;
25341;SDS011;13298;48.792;9.154;2023-05-10T07:57:39;1.27;;;0.80;;
25341;SDS011;13298;48.792;9.154;2023-05-10T08:00:05;0.50;;;0.50;;
25341;SDS011;13298;48.792;9.154;2023-05-10T08:02:32;1.40;;;0.70;;
25341;SDS011;13298;48.792;9.154;2023-05-10T08:05:00;0.77;;;0.60;;
25341;SDS011;13298;48.792;9.154;2023-05-10T08:07:26;1.38;;;1.00;;
25341;SDS011;13298;48.792;9.154;2023-05-10T08:09:51;3.85;;;0.80;;
25341;SDS011;13298;48.792;9.154;2023-05-10T08:12:17;2.53;;;0.75;;
25341;SDS011;13298;48.792;9.154;2023-05-10T08:14:43;1.55;;;1.00;;
25341;SDS011;13298;48.792;9.154;2023-05-10T08:17:08;1.75;;;0.70;;
25341;SDS011;13298;48.792;9.154;2023-05-10T08:19:34;1.95;;;0.60;;
25341;SDS011;13298;48.792;9.154;2023-05-10T08:22:00;3.17;;;0.88;;
25341;SDS011;13298;48.792;9.154;2023-05-10T08:24:25;1.73;;;0.70;;
25341;SDS011;13298;48.792;9.154;2023-05-10T08:26:51;2.47;;;0.60;;
25341;SDS011;13298;48.792;9.154;2023-05-10T08:29:17;2.22;;;0.63;;
25341;SDS011;13298;48.792;9.154;2023-05-10T08:31:43;1.75;;;0.60;;
25341;SDS011;13298;48.792;9.154;2023-05-10T08:34:08;2.05;;;0.60;;
25341;SDS011;13298;48.792;9.154;2023-05-10T08:36:34;3.70;;;0.70;;
25341;SDS011;13298;48.792;9.154;2023-05-10T08:39:01;2.05;;;0.75;;
25341;SDS011;13298;48.792;9.154;2023-05-10T08:41:27;2.33;;;0.63;;
25341;SDS011;13298;48.792;9.154;2023-05-10T08:43:53;3.25;;;0.70;;
25341;SDS011;13298;48.792;9.154;2023-05-10T08:46:20;0.70;;;0.50;;
25341;SDS011;13298;48.792;9.154;2023-05-10T08:48:48;0.63;;;0.60;;
25341;SDS011;13298;48.792;9.154;2023-05-10T08:51:17;2.72;;;0.55;;
25341;SDS011;13298;48.792;9.154;2023-05-10T08:53:45;1.15;;;0.68;;
25341;SDS011;13298;48.792;9.154;2023-05-10T08:56:11;2.38;;;0.50;;
25341;SDS011;13298;48.792;9.154;2023-05-10T08:58:37;0.47;;;0.40;;
25341;SDS011;13298;48.792;9.154;2023-05-10T09:01:03;1.45;;;0.50;;
25341;SDS011;13298;48.792;9.154;2023-05-10T09:03:30;2.00;;;0.30;;
25341;SDS011;13298;48.792;9.154;2023-05-10T09:05:57;2.42;;;0.40;;
25341;SDS011;13298;48.792;9.154;2023-05-10T09:08:23;2.60;;;0.45;;
25341;SDS011;13298;48.792;9.154;2023-05-10T09:10:50;5.07;;;0.77;;
25341;SDS011;13298;48.792;9.154;2023-05-10T09:13:17;0.60;;;0.60;;
25341;SDS011;13298;48.792;9.154;2023-05-10T09:15:44;4.10;;;0.55;;
25341;SDS011;13298;48.792;9.154;2023-05-10T09:18:10;4.43;;;0.40;;
25341;SDS011;13298;48.792;9.154;2023-05-10T09:20:37;1.45;;;0.47;;
25341;SDS011;13298;48.792;9.154;2023-05-10T09:23:02;9.63;;;0.80;;
25341;SDS011;13298;48.792;9.154;2023-05-10T09:25:28;4.38;;;0.60;;
25341;SDS011;13298;48.792;9.154;2023-05-10T09:27:54;0.85;;;0.40;;
25341;SDS011;13298;48.792;9.154;2023-05-10T09:30:26;1.67;;;0.75;;
25341;SDS011;13298;48.792;9.154;2023-05-10T09:32:56;1.77;;;0.30;;
25341;SDS011;13298;48.792;9.154;2023-05-10T09:35:24;1.38;;;0.73;;
25341;SDS011;13298;48.792;9.154;2023-05-10T09:37:55;0.40;;;0.40;;
25341;SDS011;13298;48.792;9.154;2023-05-10T09:40:25;0.80;;;0.60;;
25341;SDS011;13298;48.792;9.154;2023-05-10T09:42:59;1.92;;;0.70;;
25341;SDS011;13298;48.792;9.154;2023-05-10T09:45:32;3.22;;;0.40;;
25341;SDS011;13298;48.792;9.154;2023-05-10T09:48:03;1.10;;;0.50;;
25341;SDS011;13298;48.792;9.154;2023-05-10T09:50:29;2.47;;;0.40;;
25341;SDS011;13298;48.792;9.154;2023-05-10T09:52:59;2.58;;;0.50;;
25341;SDS011;13298;48.792;9.154;2023-05-10T09:58:06;4.38;;;0.40;;
25341;SDS011;13298;48.792;9.154;2023-05-10T10:00:35;1.17;;;0.45;;
25341;SDS011;13298;48.792;9.154;2023-05-10T10:03:03;1.77;;;1.40;;
25341;SDS011;13298;48.792;9.154;2023-05-10T10:05:30;2.10;;;0.47;;
25341;SDS011;13298;48.792;9.154;2023-05-10T10:07:57;1.08;;;0.40;;
25341;SDS011;13298;48.792;9.154;2023-05-10T10:10:24;2.10;;;0.50;;
25341;SDS011;13298;48.792;9.154;2023-05-10T10:12:50;3.03;;;0.43;;
25341;SDS011;13298;48.792;9.154;2023-05-10T10:15:17;5.93;;;0.50;;
25341;SDS011;13298;48.792;9.154;2023-05-10T10:17:43;2.10;;;0.40;;
25341;SDS011;13298;48.792;9.154;2023-05-10T10:20:10;0.75;;;0.40;;
25341;SDS011;13298;48.792;9.154;2023-05-10T10:22:36;3.22;;;0.40;;
25341;SDS011;13298;48.792;9.154;2023-05-10T10:25:02;1.10;;;0.70;;
25341;SDS011;13298;48.792;9.154;2023-05-10T10:30:13;3.38;;;0.50;;
25341;SDS011;13298;48.792;9.154;2023-05-10T10:35:34;0.55;;;0.40;;
25341;SDS011;13298;48.792;9.154;2023-05-10T10:38:01;2.30;;;0.60;;
25341;SDS011;13298;48.792;9.154;2023-05-10T10:42:58;6.22;;;0.63;;
25341;SDS011;13298;48.792;9.154;2023-05-10T10:46:10;0.70;;;0.35;;
25341;SDS011;13298;48.792;9.154;2023-05-10T10:48:49;0.88;;;0.40;;
25341;SDS011;13298;48.792;9.154;2023-05-10T10:51:37;2.85;;;0.40;;
25341;SDS011;13298;48.792;9.154;2023-05-10T10:54:10;1.67;;;0.50;;
25341;SDS011;13298;48.792;9.154;2023-05-10T10:56:36;0.70;;;0.40;;
25341;SDS011;13298;48.792;9.154;2023-05-10T10:59:02;6.97;;;0.80;;
25341;SDS011;13298;48.792;9.154;2023-05-10T11:01:32;2.45;;;0.47;;
25341;SDS011;13298;48.792;9.154;2023-05-10T11:06:28;1.25;;;0.40;;
25341;SDS011;13298;48.792;9.154;2023-05-10T11:08:59;1.98;;;0.50;;
25341;SDS011;13298;48.792;9.154;2023-05-10T11:11:30;4.53;;;0.50;;
25341;SDS011;13298;48.792;9.154;2023-05-10T11:13:56;1.98;;;0.40;;
25341;SDS011;13298;48.792;9.154;2023-05-10T11:16:29;1.52;;;0.50;;
25341;SDS011;13298;48.792;9.154;2023-05-10T11:19:16;10.32;;;0.93;;
25341;SDS011;13298;48.792;9.154;2023-05-10T11:24:40;1.15;;;0.50;;
25341;SDS011;13298;48.792;9.154;2023-05-10T11:29:51;4.18;;;0.40;;
25341;SDS011;13298;48.792;9.154;2023-05-10T11:32:17;2.28;;;0.68;;
25341;SDS011;13298;48.792;9.154;2023-05-10T11:34:46;3.22;;;0.50;;
25341;SDS011;13298;48.792;9.154;2023-05-10T11:37:13;3.55;;;0.47;;
25341;SDS011;13298;48.792;9.154;2023-05-10T11:39:38;2.40;;;0.52;;
25341;SDS011;13298;48.792;9.154;2023-05-10T11:42:12;0.82;;;0.30;;
25341;SDS011;13298;48.792;9.154;2023-05-10T11:44:37;0.32;;;0.32;;
25341;SDS011;13298;48.792;9.154;2023-05-10T11:47:04;1.08;;;0.40;;
25341;SDS011;13298;48.792;9.154;2023-05-10T11:49:30;1.08;;;0.43;;
25341;SDS011;13298;48.792;9.154;2023-05-10T11:52:05;1.15;;;0.50;;
25341;SDS011;13298;48.792;9.154;2023-05-10T11:54:32;3.22;;;0.57;;
25341;SDS011;13298;48.792;9.154;2023-05-10T11:56:59;2.20;;;0.60;;
25341;SDS011;13298;48.792;9.154;2023-05-10T11:59:25;1.33;;;0.55;;
25341;SDS011;13298;48.792;9.154;2023-05-10T12:01:51;1.67;;;0.73;;
25341;SDS011;13298;48.792;9.154;2023-05-10T12:04:16;0.85;;;0.50;;
25341;SDS011;13298;48.792;9.154;2023-05-10T12:06:42;1.38;;;0.73;;
25341;SDS011;13298;48.792;9.154;2023-05-10T12:09:09;2.15;;;0.75;;
25341;SDS011;13298;48.792;9.154;2023-05-10T12:11:39;1.55;;;0.60;;
25341;SDS011;13298;48.792;9.154;2023-05-10T12:14:05;1.15;;;0.60;;
25341;SDS011;13298;48.792;9.154;2023-05-10T12:16:31;1.23;;;0.70;;
25341;SDS011;13298;48.792;9.154;2023-05-10T12:18:58;1.40;;;0.70;;
25341;SDS011;13298;48.792;9.154;2023-05-10T12:21:25;3.05;;;0.95;;
25341;SDS011;13298;48.792;9.154;2023-05-10T12:23:54;2.05;;;0.80;;
25341;SDS011;13298;48.792;9.154;2023-05-10T12:26:25;1.85;;;0.75;;
25341;SDS011;13298;48.792;9.154;2023-05-10T12:28:53;1.63;;;0.80;;
25341;SDS011;13298;48.792;9.154;2023-05-10T12:31:19;2.90;;;0.80;;
25341;SDS011;13298;48.792;9.154;2023-05-10T12:33:46;2.63;;;0.52;;
25341;SDS011;13298;48.792;9.154;2023-05-10T12:36:14;5.57;;;0.75;;
25341;SDS011;13298;48.792;9.154;2023-05-10T12:38:41;4.95;;;0.90;;
25341;SDS011;13298;48.792;9.154;2023-05-10T12:41:15;6.10;;;0.65;;
25341;SDS011;13298;48.792;9.154;2023-05-10T12:43:42;4.47;;;0.85;;
25341;SDS011;13298;48.792;9.154;2023-05-10T12:46:11;0.95;;;0.50;;
25341;SDS011;13298;48.792;9.154;2023-05-10T12:48:41;2.00;;;0.70;;
25341;SDS011;13298;48.792;9.154;2023-05-10T12:51:08;0.90;;;0.70;;
25341;SDS011;13298;48.792;9.154;2023-05-10T12:53:35;0.60;;;0.60;;
25341;SDS011;13298;48.792;9.154;2023-05-10T12:56:01;3.90;;;0.73;;
25341;SDS011;13298;48.792;9.154;2023-05-10T12:58:27;4.10;;;1.15;;
25341;SDS011;13298;48.792;9.154;2023-05-10T13:00:52;2.30;;;0.70;;
25341;SDS011;13298;48.792;9.154;2023-05-10T13:03:18;2.88;;;0.80;;
25341;SDS011;13298;48.792;9.154;2023-05-10T13:05:44;1.25;;;0.60;;
25341;SDS011;13298;48.792;9.154;2023-05-10T13:08:10;1.40;;;0.60;;
25341;SDS011;13298;48.792;9.154;2023-05-10T13:10:36;2.20;;;0.60;;
25341;SDS011;13298;48.792;9.154;2023-05-10T13:13:02;2.03;;;0.60;;
25341;SDS011;13298;48.792;9.154;2023-05-10T13:15:27;0.98;;;0.63;;
25341;SDS011;13298;48.792;9.154;2023-05-10T13:17:53;3.20;;;0.80;;
25341;SDS011;13298;48.792;9.154;2023-05-10T13:20:19;2.78;;;0.82;;
25341;SDS011;13298;48.792;9.154;2023-05-10T13:22:45;2.28;;;0.75;;
25341;SDS011;13298;48.792;9.154;2023-05-10T13:25:12;1.45;;;0.80;;
25341;SDS011;13298;48.792;9.154;2023-05-10T13:27:40;2.08;;;0.70;;
25341;SDS011;13298;48.792;9.154;2023-05-10T13:30:07;1.27;;;0.60;;
25341;SDS011;13298;48.792;9.154;2023-05-10T13:32:33;2.30;;;0.70;;
25341;SDS011;13298;48.792;9.154;2023-05-10T13:35:00;4.45;;;0.77;;
25341;SDS011;13298;48.792;9.154;2023-05-10T13:37:28;3.97;;;0.70;;
25341;SDS011;13298;48.792;9.154;2023-05-10T13:39:55;1.67;;;0.77;;
25341;SDS011;13298;48.792;9.154;2023-05-10T13:42:21;0.55;;;0.50;;
25341;SDS011;13298;48.792;9.154;2023-05-10T13:44:48;1.83;;;0.70;;
25341;SDS011;13298;48.792;9.154;2023-05-10T13:47:14;2.95;;;0.82;;
25341;SDS011;13298;48.792;9.154;2023-05-10T13:49:40;2.08;;;0.57;;
25341;SDS011;13298;48.792;9.154;2023-05-10T13:52:06;0.95;;;0.40;;
25341;SDS011;13298;48.792;9.154;2023-05-10T13:54:35;0.93;;;0.57;;
25341;SDS011;13298;48.792;9.154;2023-05-10T13:57:03;1.35;;;0.70;;
25341;SDS011;13298;48.792;9.154;2023-05-10T13:59:29;0.50;;;0.50;;
25341;SDS011;13298;48.792;9.154;2023-05-10T14:01:56;1.67;;;0.60;;
25341;SDS011;13298;48.792;9.154;2023-05-10T14:04:23;1.15;;;0.63;;
25341;SDS011;13298;48.792;9.154;2023-05-10T14:06:49;4.50;;;0.90;;
25341;SDS011;13298;48.792;9.154;2023-05-10T14:09:14;0.93;;;0.63;;
25341;SDS011;13298;48.792;9.154;2023-05-10T14:11:40;1.52;;;0.60;;
25341;SDS011;13298;48.792;9.154;2023-05-10T14:14:08;1.33;;;0.70;;
25341;SDS011;13298;48.792;9.154;2023-05-10T14:16:34;1.35;;;0.60;;
25341;SDS011;13298;48.792;9.154;2023-05-10T14:19:00;3.08;;;0.73;;
25341;SDS011;13298;48.792;9.154;2023-05-10T14:21:26;1.52;;;0.60;;
25341;SDS011;13298;48.792;9.154;2023-05-10T14:23:54;1.13;;;0.57;;
25341;SDS011;13298;48.792;9.154;2023-05-10T14:26:20;1.88;;;0.68;;
25341;SDS011;13298;48.792;9.154;2023-05-10T14:28:46;3.20;;;0.60;;
25341;SDS011;13298;48.792;9.154;2023-05-10T14:31:12;5.38;;;0.80;;
25341;SDS011;13298;48.792;9.154;2023-05-10T14:33:39;4.22;;;0.50;;
25341;SDS011;13298;48.792;9.154;2023-05-10T14:36:05;0.77;;;0.50;;
25341;SDS011;13298;48.792;9.154;2023-05-10T14:38:31;5.72;;;1.10;;
25341;SDS011;13298;48.792;9.154;2023-05-10T14:40:57;2.03;;;0.65;;
25341;SDS011;13298;48.792;9.154;2023-05-10T14:43:23;1.27;;;0.70;;
25341;SDS011;13298;48.792;9.154;2023-05-10T14:45:49;8.63;;;0.80;;
25341;SDS011;13298;48.792;9.154;2023-05-10T14:48:15;2.38;;;0.70;;
25341;SDS011;13298;48.792;9.154;2023-05-10T14:50:42;2.45;;;0.52;;
25341;SDS011;13298;48.792;9.154;2023-05-10T14:53:08;1.70;;;0.60;;
25341;SDS011;13298;48.792;9.154;2023-05-10T14:55:34;1.55;;;0.57;;
25341;SDS011;13298;48.792;9.154;2023-05-10T14:58:02;1.30;;;0.60;;
25341;SDS011;13298;48.792;9.154;2023-05-10T15:00:28;1.85;;;0.75;;
25341;SDS011;13298;48.792;9.154;2023-05-10T15:02:56;1.13;;;0.65;;
25341;SDS011;13298;48.792;9.154;2023-05-10T15:05:22;3.13;;;0.90;;
25341;SDS011;13298;48.792;9.154;2023-05-10T15:07:48;1.98;;;0.75;;
25341;SDS011;13298;48.792;9.154;2023-05-10T15:10:14;2.50;;;0.70;;
25341;SDS011;13298;48.792;9.154;2023-05-10T15:12:39;1.30;;;0.57;;
25341;SDS011;13298;48.792;9.154;2023-05-10T15:15:06;2.35;;;0.60;;
25341;SDS011;13298;48.792;9.154;2023-05-10T15:17:32;4.80;;;0.65;;
25341;SDS011;13298;48.792;9.154;2023-05-10T15:19:58;2.55;;;0.70;;
25341;SDS011;13298;48.792;9.154;2023-05-10T15:22:24;5.65;;;0.60;;
25341;SDS011;13298;48.792;9.154;2023-05-10T15:24:50;4.13;;;0.88;;
25341;SDS011;13298;48.792;9.154;2023-05-10T15:27:16;0.77;;;0.57;;
25341;SDS011;13298;48.792;9.154;2023-05-10T15:29:41;3.50;;;0.60;;